Main page
METAR-TAF:

METAR-TAF

Airports :

Waterford Airport

Waterford, Ireland

latitude: 52-11-14N, longitude: 7-05-13W, elevation: 36 m

Current weather observation

The report was made 1 hour and 43 minutes ago, at 11:30 UTC
Wind 7 kt from the South/Southwest, varying between South/Southeast and West/Southwest
Temperature 16°C
Humidity 88%
Pressure 1011 hPa
Visibility 10 km or more
Few clouds at a height of 900 ft
Scattered clouds at a height of 2000 ft

METAR: EIWF 141130Z 20007KT 160V250 9999 FEW009 SCT020 16/14 Q1011

Time: 14:13 (13:13 UTC)

Forecast

The report was made 2 hours and 13 minutes ago, at 11:00 UTC
Forecast valid from 14 at 12 UTC to 14 at 21 UTC
Wind 7 kt from the South/Southwest
Visibility 10 km or more
Few clouds at a height of 1000 ft
Scattered clouds at a height of 2500 ft

TAF: EIWF 141100Z 1412/1421 21007KT 9999 FEW010 SCT025

Weather observations and forecasts of more than 4000 airports (METAR and TAF reports).

The available stations are represented by yellow and red dots on the map.

Hover mouse over dot to see the name of the station.

Then click to see weather observations and forecasts.

To change the map : click on the green buttons with a black cross to zoom in, on the green button with a dash to zoom out, or on the green arrows for adjacent maps.


METAR-TAF: